JFA08K LFLJ-LSGG
Flight info
| Callsign | JFA08K |
|---|---|
| Flight time | 0h 24m |
| Altitude | 20000 |
| Route | VANAS DCT BANKO |
| Aircraft | PC12/L-SDFGRWY/S |
Departure
| Time | 2026-04-26 12:25 |
|---|---|
| Airport | Courchevel Altiport (LFLJ) |
Arrival
| Time | 2026-04-26 12:49 |
|---|---|
| Airport | Geneva International Airport (LSGG) |
| Time | Latitude | Longitude | Altitude | Speed | Heading |
|---|---|---|---|---|---|
| 2026-04-26 12:11 | 45.39687 | 6.63298 | 6595 ft | 0 kts | 53° |
| 2026-04-26 12:22 | 45.39688 | 6.63300 | 6595 ft | 1 kts | 87° |
| 2026-04-26 12:22 | 45.39647 | 6.63299 | 6598 ft | 14 kts | 189° |
| 2026-04-26 12:22 | 45.39594 | 6.63302 | 6601 ft | 8 kts | 34° |
| 2026-04-26 12:23 | 45.39626 | 6.63322 | 6600 ft | 0 kts | 43° |
| 2026-04-26 12:23 | 45.39632 | 6.63330 | 6600 ft | 12 kts | 45° |
| 2026-04-26 12:24 | 45.39897 | 6.63700 | 6402 ft | 100 kts | 45° |
| 2026-04-26 12:24 | 45.40513 | 6.64374 | 6618 ft | 122 kts | 27° |
| 2026-04-26 12:24 | 45.41398 | 6.64858 | 6787 ft | 157 kts | 8° |
| 2026-04-26 12:25 | 45.43311 | 6.63245 | 7862 ft | 170 kts | 299° |
| 2026-04-26 12:25 | 45.43745 | 6.61717 | 8641 ft | 165 kts | 287° |
| 2026-04-26 12:25 | 45.44267 | 6.60242 | 9195 ft | 175 kts | 302° |
| 2026-04-26 12:25 | 45.44962 | 6.58766 | 9764 ft | 186 kts | 301° |
| 2026-04-26 12:26 | 45.45714 | 6.57185 | 10001 ft | 199 kts | 300° |
| 2026-04-26 12:26 | 45.46456 | 6.55652 | 9966 ft | 182 kts | 303° |
| 2026-04-26 12:26 | 45.47204 | 6.54179 | 9969 ft | 186 kts | 304° |
| 2026-04-26 12:26 | 45.48122 | 6.52895 | 9969 ft | 184 kts | 318° |
| 2026-04-26 12:27 | 45.49133 | 6.51752 | 9973 ft | 185 kts | 320° |
| 2026-04-26 12:27 | 45.50147 | 6.50612 | 9974 ft | 187 kts | 320° |
| 2026-04-26 12:27 | 45.51144 | 6.49418 | 9976 ft | 187 kts | 314° |
| 2026-04-26 12:27 | 45.52045 | 6.48117 | 9974 ft | 183 kts | 313° |
| 2026-04-26 12:28 | 45.52960 | 6.46842 | 9971 ft | 185 kts | 315° |
| 2026-04-26 12:28 | 45.53898 | 6.45594 | 9976 ft | 184 kts | 316° |
| 2026-04-26 12:28 | 45.54852 | 6.44354 | 9981 ft | 187 kts | 315° |
| 2026-04-26 12:28 | 45.55813 | 6.43132 | 9978 ft | 184 kts | 317° |
| 2026-04-26 12:29 | 45.56772 | 6.41941 | 9988 ft | 184 kts | 317° |
| 2026-04-26 12:29 | 45.57743 | 6.40765 | 10107 ft | 183 kts | 317° |
| 2026-04-26 12:29 | 45.59732 | 6.38403 | 10129 ft | 183 kts | 320° |
| 2026-04-26 12:30 | 45.60719 | 6.37269 | 10127 ft | 183 kts | 320° |
| 2026-04-26 12:30 | 45.61728 | 6.36121 | 10132 ft | 187 kts | 320° |
| 2026-04-26 12:30 | 45.62750 | 6.34975 | 10137 ft | 185 kts | 321° |
| 2026-04-26 12:31 | 45.64788 | 6.32767 | 10136 ft | 185 kts | 322° |
| 2026-04-26 12:31 | 45.65828 | 6.31676 | 10135 ft | 186 kts | 322° |
| 2026-04-26 12:31 | 45.66878 | 6.30597 | 10138 ft | 185 kts | 324° |
| 2026-04-26 12:31 | 45.67930 | 6.29531 | 10134 ft | 186 kts | 324° |
| 2026-04-26 12:32 | 45.68983 | 6.28462 | 10135 ft | 186 kts | 323° |
| 2026-04-26 12:32 | 45.70029 | 6.27362 | 10137 ft | 185 kts | 317° |
| 2026-04-26 12:32 | 45.71707 | 6.24691 | 10147 ft | 182 kts | 311° |
| 2026-04-26 12:33 | 45.72577 | 6.23403 | 10144 ft | 182 kts | 314° |
| 2026-04-26 12:33 | 45.73471 | 6.22118 | 10150 ft | 182 kts | 314° |
| 2026-04-26 12:33 | 45.74363 | 6.20830 | 10152 ft | 182 kts | 313° |
| 2026-04-26 12:33 | 45.75255 | 6.19537 | 10158 ft | 182 kts | 313° |
| 2026-04-26 12:34 | 45.76148 | 6.18231 | 10159 ft | 183 kts | 313° |
| 2026-04-26 12:34 | 45.77042 | 6.16930 | 10159 ft | 184 kts | 313° |
| 2026-04-26 12:34 | 45.77935 | 6.15631 | 10153 ft | 182 kts | 313° |
| 2026-04-26 12:34 | 45.78816 | 6.14343 | 10149 ft | 181 kts | 313° |
| 2026-04-26 12:35 | 45.79712 | 6.13038 | 10153 ft | 185 kts | 313° |
| 2026-04-26 12:35 | 45.80617 | 6.11726 | 10158 ft | 184 kts | 313° |
| 2026-04-26 12:35 | 45.81511 | 6.10419 | 10151 ft | 182 kts | 314° |
| 2026-04-26 12:35 | 45.82397 | 6.09123 | 10156 ft | 181 kts | 314° |
| 2026-04-26 12:36 | 45.83283 | 6.07833 | 10157 ft | 182 kts | 314° |
| 2026-04-26 12:36 | 45.84162 | 6.06550 | 10158 ft | 183 kts | 314° |
| 2026-04-26 12:36 | 45.85053 | 6.05251 | 10159 ft | 182 kts | 314° |
| 2026-04-26 12:36 | 45.85939 | 6.03948 | 10159 ft | 181 kts | 314° |
| 2026-04-26 12:37 | 45.86814 | 6.02667 | 10154 ft | 179 kts | 314° |
| 2026-04-26 12:37 | 45.87682 | 6.01400 | 10149 ft | 179 kts | 314° |
| 2026-04-26 12:37 | 45.88569 | 6.00098 | 10152 ft | 184 kts | 314° |
| 2026-04-26 12:37 | 45.89462 | 5.98793 | 10154 ft | 181 kts | 314° |
| 2026-04-26 12:38 | 45.90344 | 5.97498 | 10158 ft | 182 kts | 314° |
| 2026-04-26 12:38 | 45.91239 | 5.96180 | 10060 ft | 188 kts | 314° |
| 2026-04-26 12:38 | 45.92150 | 5.94854 | 9804 ft | 183 kts | 314° |
| 2026-04-26 12:38 | 45.93038 | 5.93553 | 9565 ft | 181 kts | 314° |
| 2026-04-26 12:39 | 45.93912 | 5.92281 | 9329 ft | 176 kts | 315° |
| 2026-04-26 12:39 | 45.94758 | 5.91011 | 9099 ft | 178 kts | 315° |
| 2026-04-26 12:39 | 45.95615 | 5.89715 | 8833 ft | 179 kts | 315° |
| 2026-04-26 12:39 | 45.96461 | 5.88421 | 8599 ft | 177 kts | 315° |
| 2026-04-26 12:40 | 45.97300 | 5.87133 | 8359 ft | 175 kts | 314° |
| 2026-04-26 12:40 | 45.98137 | 5.85857 | 8006 ft | 174 kts | 315° |
| 2026-04-26 12:40 | 45.98970 | 5.84574 | 7763 ft | 175 kts | 314° |
| 2026-04-26 12:40 | 45.99804 | 5.83279 | 7504 ft | 176 kts | 315° |
| 2026-04-26 12:41 | 46.00731 | 5.82253 | 7221 ft | 170 kts | 347° |
| 2026-04-26 12:41 | 46.01868 | 5.82507 | 7017 ft | 168 kts | 24° |
| 2026-04-26 12:41 | 46.02926 | 5.83210 | 6760 ft | 168 kts | 25° |
| 2026-04-26 12:41 | 46.03987 | 5.83905 | 6395 ft | 167 kts | 26° |
| 2026-04-26 12:42 | 46.05064 | 5.84611 | 6170 ft | 170 kts | 24° |
| 2026-04-26 12:42 | 46.06107 | 5.85345 | 6037 ft | 166 kts | 30° |
| 2026-04-26 12:42 | 46.07005 | 5.86383 | 5943 ft | 169 kts | 44° |
| 2026-04-26 12:42 | 46.07871 | 5.87579 | 5652 ft | 172 kts | 43° |
| 2026-04-26 12:43 | 46.08745 | 5.88766 | 5241 ft | 173 kts | 41° |
| 2026-04-26 12:43 | 46.09562 | 5.89989 | 5077 ft | 173 kts | 44° |
| 2026-04-26 12:43 | 46.10364 | 5.91249 | 4886 ft | 172 kts | 46° |
| 2026-04-26 12:43 | 46.11175 | 5.92547 | 4662 ft | 176 kts | 45° |
| 2026-04-26 12:44 | 46.12060 | 5.93767 | 4358 ft | 176 kts | 43° |
| 2026-04-26 12:44 | 46.12911 | 5.94991 | 4200 ft | 171 kts | 43° |
| 2026-04-26 12:44 | 46.13760 | 5.96219 | 3947 ft | 173 kts | 44° |
| 2026-04-26 12:44 | 46.14602 | 5.97463 | 3639 ft | 172 kts | 45° |
| 2026-04-26 12:45 | 46.15415 | 5.98701 | 3514 ft | 172 kts | 44° |
| 2026-04-26 12:45 | 46.16188 | 5.99868 | 3219 ft | 153 kts | 46° |
| 2026-04-26 12:45 | 46.16889 | 6.00877 | 3165 ft | 135 kts | 42° |
| 2026-04-26 12:45 | 46.17535 | 6.01765 | 2906 ft | 127 kts | 41° |
| 2026-04-26 12:46 | 46.18128 | 6.02565 | 2680 ft | 107 kts | 44° |
| 2026-04-26 12:46 | 46.18616 | 6.03292 | 2633 ft | 98 kts | 45° |
| 2026-04-26 12:46 | 46.19078 | 6.03997 | 2448 ft | 94 kts | 46° |
| 2026-04-26 12:46 | 46.19526 | 6.04654 | 2396 ft | 90 kts | 44° |
| 2026-04-26 12:47 | 46.19970 | 6.05251 | 2318 ft | 84 kts | 39° |
| 2026-04-26 12:47 | 46.20401 | 6.05853 | 2164 ft | 88 kts | 46° |
| 2026-04-26 12:47 | 46.20831 | 6.06533 | 1998 ft | 95 kts | 43° |
| 2026-04-26 12:47 | 46.21295 | 6.07177 | 1863 ft | 92 kts | 49° |
| 2026-04-26 12:48 | 46.21767 | 6.07900 | 1758 ft | 104 kts | 44° |
| 2026-04-26 12:48 | 46.22258 | 6.08619 | 1591 ft | 92 kts | 51° |
| 2026-04-26 12:48 | 46.22724 | 6.09302 | 1475 ft | 101 kts | 46° |
| 2026-04-26 12:48 | 46.23193 | 6.09993 | 1401 ft | 84 kts | 46° |
| 2026-04-26 12:49 | 46.23504 | 6.10452 | 1385 ft | 49 kts | 46° |
| 2026-04-26 12:49 | 46.23745 | 6.10808 | 1379 ft | 40 kts | 45° |
| 2026-04-26 12:49 | 46.23881 | 6.10939 | 1377 ft | 15 kts | 320° |
| 2026-04-26 12:49 | 46.23978 | 6.10803 | 1382 ft | 20 kts | 318° |
| 2026-04-26 12:50 | 46.24023 | 6.10660 | 1386 ft | 19 kts | 225° |
| 2026-04-26 12:50 | 46.23912 | 6.10495 | 1389 ft | 26 kts | 221° |
| 2026-04-26 12:50 | 46.23777 | 6.10297 | 1386 ft | 20 kts | 223° |
| 2026-04-26 12:50 | 46.23699 | 6.10184 | 1399 ft | 18 kts | 225° |
| 2026-04-26 12:51 | 46.23712 | 6.10081 | 1398 ft | 16 kts | 313° |
| 2026-04-26 12:51 | 46.23682 | 6.09965 | 1401 ft | 9 kts | 195° |
| 2026-04-26 12:51 | 46.23668 | 6.09989 | 1397 ft | 0 kts | 132° |